Time;durP1;ratioP1;P1;durP2;ratioP2;P2;SDS_P1;SDS_P2;PMS_P1;PMS_P2;Temp;Humidity;BMP_temperature;BMP_pressure;BME280_temperature;BME280_humidity;BME280_pressure;Samples;Min_cycle;Max_cycle;Signal;HPM_P1;HPM_P2
2023/10/13 00:02:05;;;;;;;6.97;6.47;;;;;;;13.75;73.86;99980.72;5092448;28;20719;-74
2023/10/13 00:04:35;;;;;;;7.27;6.53;;;;;;;13.73;73.68;99982.75;5092199;28;20270;-74
2023/10/13 00:07:04;;;;;;;7.40;6.80;;;;;;;13.71;73.55;99987.47;5092437;28;20190;-74
2023/10/13 00:09:33;;;;;;;15.70;7.13;;;;;;;13.59;73.75;99980.25;5092258;28;20202;-73
2023/10/13 00:12:00;;;;;;;8.37;7.57;;;;;;;13.58;73.56;99978.63;5091918;28;20237;-73
2023/10/13 00:14:33;;;;;;;7.63;6.93;;;;;;;13.57;74.02;99974.31;5092047;28;20252;-73
2023/10/13 00:17:03;;;;;;;8.33;7.60;;;;;;;13.64;74.02;99981.31;5092005;28;20283;-72
2023/10/13 00:19:37;;;;;;;7.90;6.70;;;;;;;13.69;73.75;99965.50;5091951;28;20248;-74
2023/10/13 00:22:11;;;;;;;13.40;7.00;;;;;;;13.77;73.65;99961.81;5092428;28;20239;-73
2023/10/13 00:24:45;;;;;;;9.47;7.07;;;;;;;13.79;73.26;99957.06;5091907;28;20709;-73
2023/10/13 00:27:27;;;;;;;11.33;6.60;;;;;;;13.85;73.69;99965.09;5091898;28;20531;-76
2023/10/13 00:30:14;;;;;;;7.47;6.70;;;;;;;13.87;74.02;99968.38;5092139;28;20179;-76
2023/10/13 00:32:44;;;;;;;8.00;7.20;;;;;;;13.93;73.59;99969.41;5092063;28;20190;-77
2023/10/13 00:35:14;;;;;;;9.40;7.17;;;;;;;13.92;73.63;99970.44;5091786;28;20294;-75
2023/10/13 00:37:43;;;;;;;7.97;7.20;;;;;;;13.95;73.07;99973.53;5091647;28;20188;-77
2023/10/13 00:40:42;;;;;;;8.93;6.57;;;;;;;13.97;73.18;99976.81;5091160;28;20272;-75
2023/10/13 00:43:28;;;;;;;7.77;6.03;;;;;;;13.99;72.97;99964.06;5091484;28;20200;-75
2023/10/13 00:45:54;;;;;;;8.80;7.20;;;;;;;13.99;72.99;99956.06;5091572;28;20215;-75
2023/10/13 00:48:25;;;;;;;12.90;6.53;;;;;;;14.04;72.99;99958.09;5091860;28;20284;-75
2023/10/13 00:50:51;;;;;;;7.13;6.27;;;;;;;14.04;73.23;99953.59;5091451;28;20298;-76
2023/10/13 00:53:21;;;;;;;10.23;6.50;;;;;;;14.03;73.75;99949.28;5091489;28;20665;-74
2023/10/13 00:55:46;;;;;;;9.83;6.60;;;;;;;13.94;73.56;99949.69;5091885;28;20196;-73
2023/10/13 00:58:15;;;;;;;11.63;7.57;;;;;;;14.00;73.95;99954.19;5091750;28;20640;-73
2023/10/13 01:00:47;;;;;;;7.03;6.33;;;;;;;14.04;73.44;99947.41;5091498;28;20282;-73
2023/10/13 01:03:14;;;;;;;7.03;6.10;;;;;;;14.07;73.27;99945.16;5091579;28;20705;-74
2023/10/13 01:05:42;;;;;;;13.60;6.67;;;;;;;14.08;73.53;99946.81;5091744;28;20195;-74
2023/10/13 01:08:12;;;;;;;11.73;6.60;;;;;;;14.09;73.37;99944.97;5091730;28;20681;-74
2023/10/13 01:10:37;;;;;;;12.50;6.77;;;;;;;14.09;73.24;99948.44;5091329;28;20720;-74
2023/10/13 01:13:04;;;;;;;7.87;6.27;;;;;;;14.08;73.68;99946.81;5091287;28;20200;-74
2023/10/13 01:15:32;;;;;;;6.43;5.93;;;;;;;14.07;73.56;99942.50;5091698;28;20699;-74
2023/10/13 01:18:11;;;;;;;6.47;6.07;;;;;;;14.10;73.16;99952.75;5091678;28;20203;-75
2023/10/13 01:20:43;;;;;;;6.90;6.30;;;;;;;14.08;73.83;99956.66;5091630;28;20189;-74
2023/10/13 01:23:18;;;;;;;8.43;5.63;;;;;;;14.08;73.82;99946.81;5091693;28;20183;-73
2023/10/13 01:25:44;;;;;;;7.00;6.40;;;;;;;14.07;73.35;99937.16;5091541;28;20270;-74
2023/10/13 01:28:15;;;;;;;6.87;6.27;;;;;;;14.07;73.60;99942.50;5091481;28;20282;-74
2023/10/13 01:30:41;;;;;;;6.57;6.00;;;;;;;14.07;73.03;99944.34;5091437;28;20204;-74
2023/10/13 01:33:09;;;;;;;14.00;6.90;;;;;;;14.07;73.50;99936.31;5091536;28;20261;-74
2023/10/13 01:35:37;;;;;;;8.83;7.00;;;;;;;14.06;73.43;99940.84;5091274;28;20276;-73
2023/10/13 01:38:04;;;;;;;9.17;6.50;;;;;;;14.02;73.80;99950.31;5091548;28;20191;-74
2023/10/13 01:40:34;;;;;;;7.00;6.60;;;;;;;13.96;74.24;99951.13;5091721;28;20192;-75
2023/10/13 01:43:00;;;;;;;8.50;6.50;;;;;;;13.83;74.83;99953.81;5091044;28;20183;-76
2023/10/13 01:45:29;;;;;;;7.27;6.67;;;;;;;13.85;75.21;99951.75;5091402;28;20222;-76
2023/10/13 01:47:55;;;;;;;9.07;6.83;;;;;;;13.87;75.05;99947.03;5090837;28;20227;-75
2023/10/13 01:50:28;;;;;;;14.17;6.70;;;;;;;13.86;74.75;99950.72;5090930;28;20254;-75
2023/10/13 01:53:05;;;;;;;10.23;7.33;;;;;;;13.86;75.20;99953.41;5094412;28;20195;-75
2023/10/13 01:55:42;;;;;;;7.47;6.60;;;;;;;13.81;75.29;99941.69;5094957;28;20219;-75
2023/10/13 01:58:14;;;;;;;9.47;6.67;;;;;;;13.81;75.27;99939.81;5094632;28;20568;-75
2023/10/13 02:00:42;;;;;;;8.37;5.60;;;;;;;13.78;75.36;99942.94;5094514;28;20661;-74
2023/10/13 02:03:14;;;;;;;11.77;6.47;;;;;;;13.70;75.86;99940.47;5094555;28;20288;-75
2023/10/13 02:05:46;;;;;;;8.40;6.33;;;;;;;13.64;75.33;99943.13;5094740;28;20179;-75
2023/10/13 02:08:18;;;;;;;10.23;6.10;;;;;;;13.64;75.58;99935.91;5094530;28;20600;-75
2023/10/13 02:10:47;;;;;;;7.03;6.33;;;;;;;13.64;75.17;99935.91;5094884;28;20207;-72
2023/10/13 02:13:17;;;;;;;6.97;6.37;;;;;;;13.54;75.37;99930.19;5094670;28;20252;-73
2023/10/13 02:15:45;;;;;;;7.00;6.30;;;;;;;13.59;75.01;99932.22;5094314;28;20258;-73
2023/10/13 02:18:13;;;;;;;6.43;5.90;;;;;;;13.59;74.78;99932.22;5094171;28;20252;-73
2023/10/13 02:20:45;;;;;;;9.73;6.33;;;;;;;13.51;74.81;99935.91;5093995;28;20200;-73
2023/10/13 02:23:11;;;;;;;10.27;6.30;;;;;;;13.50;75.51;99944.13;5094861;28;20191;-72
2023/10/13 02:25:45;;;;;;;14.90;7.13;;;;;;;13.50;75.73;99949.47;5094389;28;20569;-72
2023/10/13 02:28:21;;;;;;;11.10;6.50;;;;;;;13.49;75.26;99937.97;5094069;28;20662;-72
2023/10/13 02:30:50;;;;;;;9.83;7.23;;;;;;;13.42;75.79;99947.81;5094211;28;20211;-74
2023/10/13 02:33:21;;;;;;;7.63;6.80;;;;;;;13.40;76.19;99949.84;5094364;28;20209;-73
2023/10/13 02:35:53;;;;;;;11.53;6.30;;;;;;;13.37;75.63;99944.94;5094199;28;20211;-74
2023/10/13 02:38:27;;;;;;;8.20;6.27;;;;;;;13.35;75.45;99941.63;5093670;28;20273;-73
2023/10/13 02:40:54;;;;;;;11.70;7.13;;;;;;;13.36;75.75;99953.94;5094178;28;20187;-74
2023/10/13 02:43:23;;;;;;;11.10;6.80;;;;;;;13.31;76.19;99936.94;5094095;28;20290;-74
2023/10/13 02:45:58;;;;;;;14.27;7.00;;;;;;;13.25;76.17;99940.38;5094042;28;20245;-74
2023/10/13 02:48:30;;;;;;;11.50;6.57;;;;;;;13.22;76.02;99936.28;5093767;28;20210;-73
2023/10/13 02:51:01;;;;;;;14.77;7.70;;;;;;;13.22;76.26;99946.97;5093671;28;20328;-73
2023/10/13 02:53:29;;;;;;;12.17;7.33;;;;;;;13.16;76.65;99937.09;5093640;28;20693;-73
2023/10/13 02:55:58;;;;;;;16.63;7.47;;;;;;;13.09;76.88;99933.59;5093467;28;20252;-73
2023/10/13 02:58:37;;;;;;;11.17;7.37;;;;;;;13.02;77.23;99945.28;5093453;28;20264;-74
2023/10/13 03:01:16;;;;;;;9.80;6.73;;;;;;;12.96;77.46;99940.69;5093761;28;20183;-74
2023/10/13 03:03:53;;;;;;;11.00;6.47;;;;;;;12.92;77.41;99945.63;5093721;28;20630;-74
2023/10/13 03:06:23;;;;;;;8.00;5.87;;;;;;;12.86;77.68;99943.72;5093798;28;20270;-73
2023/10/13 03:08:50;;;;;;;7.73;5.90;;;;;;;12.82;77.63;99936.34;5093227;28;20200;-73
2023/10/13 03:11:21;;;;;;;6.87;6.13;;;;;;;12.80;77.39;99936.53;5093340;28;20219;-73
2023/10/13 03:13:52;;;;;;;7.20;5.40;;;;;;;12.74;77.59;99926.66;5093569;28;20639;-73
2023/10/13 03:16:19;;;;;;;8.33;6.83;;;;;;;12.71;77.04;99927.09;5093444;28;20184;-73
2023/10/13 03:18:53;;;;;;;10.33;6.30;;;;;;;12.66;77.05;99934.81;5093079;28;20200;-73
2023/10/13 03:21:28;;;;;;;9.20;6.23;;;;;;;12.60;77.82;99924.13;5092980;28;20344;-73
2023/10/13 03:23:56;;;;;;;6.50;5.60;;;;;;;12.66;77.16;99923.38;5093081;28;20665;-73
2023/10/13 03:26:23;;;;;;;9.63;5.77;;;;;;;12.61;77.18;99925.78;5093075;28;20199;-73
2023/10/13 03:28:53;;;;;;;6.57;6.07;;;;;;;12.61;76.84;99923.94;5093557;28;20207;-73
2023/10/13 03:31:25;;;;;;;8.20;6.20;;;;;;;12.55;77.08;99908.75;5092798;28;20571;-72
2023/10/13 03:33:56;;;;;;;12.53;6.13;;;;;;;12.53;77.13;99912.66;5093420;28;20192;-73
2023/10/13 03:36:56;;;;;;;6.80;6.20;;;;;;;12.47;77.44;99911.59;5092765;28;20237;-73
2023/10/13 03:39:30;;;;;;;9.37;6.30;;;;;;;12.52;77.58;99908.31;5092545;28;20278;-73
2023/10/13 03:41:59;;;;;;;10.67;7.63;;;;;;;12.57;77.27;99904.03;5092675;28;20662;-73
2023/10/13 03:44:30;;;;;;;10.37;6.67;;;;;;;12.63;76.82;99897.94;5092709;28;20253;-73
2023/10/13 03:47:04;;;;;;;18.87;7.30;;;;;;;12.67;76.47;99909.00;5093132;28;20191;-73
2023/10/13 03:49:31;;;;;;;18.00;7.10;;;;;;;12.69;76.51;99897.13;5093115;28;20186;-73
2023/10/13 03:51:58;;;;;;;11.63;7.37;;;;;;;12.70;76.28;99904.09;5092788;28;20218;-73
2023/10/13 03:54:25;;;;;;;14.70;6.97;;;;;;;12.74;76.29;99905.34;5092396;28;20195;-73
2023/10/13 03:56:56;;;;;;;14.90;6.30;;;;;;;12.74;76.43;99894.66;5092726;28;20191;-73
2023/10/13 03:59:23;;;;;;;19.50;8.63;;;;;;;12.78;76.42;99890.59;5092647;28;20187;-72
2023/10/13 04:02:00;;;;;;;16.43;6.77;;;;;;;12.78;76.67;99895.13;5092368;28;20227;-73
2023/10/13 04:04:42;;;;;;;13.10;6.87;;;;;;;12.74;77.19;99909.88;5092182;28;20209;-73
2023/10/13 04:07:38;;;;;;;27.93;7.40;;;;;;;12.73;77.96;99917.03;5092610;28;20233;-73
2023/10/13 04:15:43;;;;;;;12.77;6.37;;;;;;;12.76;78.10;99913.97;5092244;28;20179;-73
2023/10/13 04:18:33;;;;;;;14.07;7.10;;;;;;;12.80;77.95;99904.56;5081868;28;20656;-73
2023/10/13 04:21:18;;;;;;;29.63;7.60;;;;;;;12.81;77.60;99911.53;5072215;28;20195;-73
2023/10/13 04:26:36;;;;;;;22.13;7.60;;;;;;;12.86;78.00;99921.59;5070964;28;20253;-73
2023/10/13 04:29:10;;;;;;;16.43;6.27;;;;;;;12.86;77.71;99922.41;5071708;28;20195;-72
2023/10/13 04:31:57;;;;;;;16.40;6.60;;;;;;;12.86;77.80;99925.06;5071617;28;20687;-72
2023/10/13 04:34:37;;;;;;;12.37;6.10;;;;;;;12.88;77.87;99933.69;5072141;28;20196;-73
2023/10/13 04:37:23;;;;;;;10.70;6.63;;;;;;;12.92;77.94;99934.94;5072296;28;20274;-73
2023/10/13 04:39:56;;;;;;;15.37;6.10;;;;;;;12.94;77.04;99940.09;5071622;28;20230;-73
2023/10/13 04:42:39;;;;;;;11.70;5.80;;;;;;;12.97;77.12;99937.00;5071508;28;20224;-73
2023/10/13 04:45:27;;;;;;;10.03;5.83;;;;;;;13.00;76.79;99926.81;5071526;28;20710;-73
2023/10/13 04:48:12;;;;;;;7.87;5.30;;;;;;;13.03;76.82;99931.72;5072055;28;20192;-73
2023/10/13 04:50:45;;;;;;;12.67;5.53;;;;;;;13.05;75.98;99936.84;5071355;28;20196;-73
2023/10/13 04:53:27;;;;;;;34.83;7.07;;;;;;;13.04;76.01;99945.88;5071689;28;20720;-73
2023/10/13 05:04:30;;;;;;;21.93;7.27;;;;;;;13.28;75.60;99940.78;5109656;27;20538;-72
2023/10/13 05:45:39;;;;;;;17.10;5.57;;;;;;;20.53;48.91;99979.06;5107033;28;20259;-68
2023/10/13 05:48:12;;;;;;;11.23;5.50;;;;;;;20.98;46.88;99984.31;5086865;28;20310;-68
2023/10/13 05:51:32;;;;;;;11.33;5.57;;;;;;;21.29;45.60;99991.69;5087947;28;20192;-68
2023/10/13 06:29:46;;;;;;;10.80;5.07;;;;;;;23.56;38.96;100029.16;5085378;28;20189;-68
2023/10/13 06:32:14;;;;;;;25.07;5.60;;;;;;;23.34;40.92;100026.63;5088995;28;20198;-68
2023/10/13 06:34:44;;;;;;;12.97;5.90;;;;;;;23.26;39.60;100023.59;5092905;28;20514;-69
2023/10/13 06:37:23;;;;;;;11.30;5.83;;;;;;;23.43;39.19;100025.03;5091603;28;20197;-68
2023/10/13 06:39:49;;;;;;;16.27;5.30;;;;;;;23.40;38.91;100024.75;5091007;28;20181;-68
2023/10/13 06:42:19;;;;;;;12.73;5.07;;;;;;;22.78;39.98;100022.00;5093800;28;20193;-67
2023/10/13 06:44:46;;;;;;;12.90;4.90;;;;;;;22.81;41.40;100010.63;5093700;28;20276;-67
2023/10/13 06:47:13;;;;;;;26.27;5.17;;;;;;;22.90;41.23;100014.47;5092455;28;20267;-67
2023/10/13 06:49:43;;;;;;;15.53;4.70;;;;;;;23.18;40.73;100022.19;5093876;28;20203;-66
2023/10/13 06:52:10;;;;;;;26.17;5.63;;;;;;;23.57;39.57;100004.44;5093844;28;20197;-68
2023/10/13 06:54:38;;;;;;;13.57;5.17;;;;;;;23.88;39.29;100006.13;5093742;28;20635;-67
2023/10/13 06:57:06;;;;;;;20.50;5.63;;;;;;;24.08;38.17;100000.75;5092942;28;20189;-67
2023/10/13 06:59:39;;;;;;;45.40;6.53;;;;;;;23.99;38.45;100005.09;5092800;28;20190;-67
2023/10/13 07:02:09;;;;;;;16.77;4.97;;;;;;;24.18;37.86;100006.16;5092629;28;20274;-68
2023/10/13 07:04:39;;;;;;;13.47;5.20;;;;;;;24.38;36.93;100006.16;5073721;28;20231;-69
2023/10/13 07:07:09;;;;;;;10.57;4.40;;;;;;;24.61;36.87;100011.06;5086777;28;20273;-67
2023/10/13 07:09:49;;;;;;;12.43;4.07;;;;;;;24.89;36.74;99999.56;5090697;28;20187;-66
2023/10/13 07:12:18;;;;;;;7.57;4.77;;;;;;;25.25;36.02;100004.84;5093243;28;20206;-66
2023/10/13 07:14:53;;;;;;;13.10;4.97;;;;;;;25.52;34.75;100000.66;5093037;28;20184;-66
2023/10/13 07:17:23;;;;;;;14.63;5.50;;;;;;;25.76;35.31;100012.50;5090477;28;20185;-66
2023/10/13 07:19:54;;;;;;;12.07;5.40;;;;;;;25.89;34.32;100016.50;5093297;28;20187;-65
2023/10/13 07:22:21;;;;;;;15.40;5.63;;;;;;;26.04;34.84;100021.88;5092975;28;20256;-67
2023/10/13 07:24:49;;;;;;;11.87;4.70;;;;;;;26.17;33.41;100013.84;5089948;28;20837;-68
2023/10/13 07:27:22;;;;;;;23.80;5.23;;;;;;;26.37;34.15;100019.13;5091730;28;20575;-68
2023/10/13 07:29:56;;;;;;;6.00;4.30;;;;;;;26.42;33.12;100010.09;5092589;28;20632;-67
2023/10/13 07:32:25;;;;;;;18.63;5.20;;;;;;;26.22;33.57;100011.09;5092809;28;20183;-69
2023/10/13 07:34:56;;;;;;;27.07;5.60;;;;;;;26.26;34.40;100005.88;5090412;28;20241;-68
2023/10/13 07:37:25;;;;;;;9.83;5.43;;;;;;;26.41;33.42;100003.03;5090720;28;20202;-67
2023/10/13 07:39:52;;;;;;;7.53;5.07;;;;;;;25.80;34.77;99997.22;5089812;28;20198;-72
2023/10/13 07:42:21;;;;;;;11.80;4.83;;;;;;;25.63;34.44;100002.22;5092485;28;20196;-69
2023/10/13 07:44:48;;;;;;;7.90;4.50;;;;;;;25.74;34.29;100005.72;5092561;28;20270;-68
2023/10/13 07:47:18;;;;;;;7.60;4.20;;;;;;;25.94;34.03;100002.88;5092518;28;20195;-68
2023/10/13 07:49:48;;;;;;;14.40;3.93;;;;;;;26.20;33.92;99996.13;5091727;28;20284;-68
2023/10/13 07:55:13;;;;;;;7.07;4.23;;;;;;;26.67;32.96;99990.81;5072856;28;20207;-68
2023/10/13 07:57:53;;;;;;;14.03;5.10;;;;;;;27.02;32.26;99995.84;5090847;28;20183;-66
2023/10/13 08:00:29;;;;;;;7.03;4.30;;;;;;;27.32;32.08;100003.69;5091322;28;20218;-69
2023/10/13 08:03:19;;;;;;;8.23;4.33;;;;;;;27.61;31.51;100009.84;5088857;28;20233;-69
2023/10/13 08:05:58;;;;;;;10.17;4.03;;;;;;;27.61;31.51;100007.09;5091018;28;20184;-70
2023/10/13 08:08:35;;;;;;;9.13;4.37;;;;;;;27.42;30.65;99992.63;5090664;28;20563;-69
2023/10/13 08:11:08;;;;;;;11.07;4.10;;;;;;;27.62;31.91;99995.06;5089825;28;20184;-67
2023/10/13 08:13:37;;;;;;;7.73;3.90;;;;;;;27.85;30.75;99997.75;5090724;28;20215;-69
2023/10/13 08:16:08;;;;;;;4.73;3.97;;;;;;;28.03;30.37;99987.91;5091114;28;20200;-69
2023/10/13 08:18:41;;;;;;;8.10;4.17;;;;;;;28.01;29.98;99995.59;5089940;28;20200;-68
2023/10/13 08:21:15;;;;;;;13.00;4.90;;;;;;;27.90;30.55;99989.50;5091349;28;20202;-70
2023/10/13 08:26:38;;;;;;;11.87;4.50;;;;;;;27.57;30.71;99982.28;5090360;28;20252;-69
2023/10/13 08:30:21;;;;;;;11.23;4.43;;;;;;;27.71;30.72;99979.66;5091318;28;20184;-68
2023/10/13 08:32:24;;;;;;;6.47;3.83;;;;;;;27.77;30.13;99973.00;5084825;28;20199;-68
2023/10/13 08:35:09;;;;;;;8.57;4.27;;;;;;;27.74;30.24;99963.50;5089922;28;20195;-62
2023/10/13 08:37:47;;;;;;;5.20;4.33;;;;;;;27.50;30.37;99956.47;5078149;28;20556;-62
2023/10/13 08:43:12;;;;;;;11.70;5.17;;;;;;;27.67;30.54;99949.41;5046685;28;20208;-61
2023/10/13 08:45:58;;;;;;;10.17;4.33;;;;;;;27.85;30.39;99947.78;5090158;28;20203;-65
2023/10/13 08:48:33;;;;;;;7.73;4.67;;;;;;;27.95;29.39;99959.38;5089727;28;20179;-62
2023/10/13 08:51:10;;;;;;;12.50;4.80;;;;;;;27.55;30.45;99945.47;5089747;28;20183;-62
2023/10/13 08:53:45;;;;;;;7.53;4.77;;;;;;;27.69;30.98;99957.31;5090540;28;20259;-62
2023/10/13 08:56:17;;;;;;;6.13;4.63;;;;;;;27.49;30.22;99947.50;5089707;28;20222;-61
2023/10/13 08:59:05;;;;;;;6.77;4.80;;;;;;;27.61;30.72;99947.03;5089382;28;20241;-65
2023/10/13 09:01:37;;;;;;;14.20;5.00;;;;;;;27.60;30.55;99939.97;5090197;28;20184;-65
2023/10/13 09:07:07;;;;;;;8.23;4.80;;;;;;;27.71;30.34;99936.78;5086914;28;20567;-65
2023/10/13 09:09:59;;;;;;;11.93;4.73;;;;;;;27.92;31.15;99934.53;5071071;28;20195;-70
2023/10/13 09:12:35;;;;;;;14.43;4.63;;;;;;;28.05;29.78;99936.53;5055495;28;20591;-66
2023/10/13 09:15:05;;;;;;;11.93;4.87;;;;;;;27.94;29.88;99935.91;5051659;28;20204;-65
2023/10/13 09:17:34;;;;;;;12.27;4.93;;;;;;;28.04;29.86;99932.97;5067479;28;20277;-66
2023/10/13 09:20:23;;;;;;;10.10;4.77;;;;;;;28.19;30.05;99926.44;5058224;28;20290;-67
2023/10/13 09:23:07;;;;;;;6.03;4.37;;;;;;;28.47;29.47;99934.41;5055068;28;20200;-67
2023/10/13 09:25:35;;;;;;;8.00;4.07;;;;;;;28.57;28.95;99927.91;5067383;28;20211;-65
2023/10/13 09:28:09;;;;;;;12.67;5.57;;;;;;;28.68;29.00;99930.19;5067795;28;20282;-71
2023/10/13 09:30:42;;;;;;;15.70;5.30;;;;;;;28.82;28.48;99932.88;5067322;28;20192;-66
2023/10/13 09:33:09;;;;;;;17.00;4.47;;;;;;;28.74;28.80;99933.59;5068168;28;20190;-66
2023/10/13 09:35:37;;;;;;;17.53;5.00;;;;;;;28.72;28.71;99930.38;5067161;28;20196;-67
2023/10/13 09:38:05;;;;;;;10.05;4.85;;;;;;;28.67;28.71;99925.78;5065500;28;20444;-66
2023/10/13 09:40:34;;;;;;;11.83;4.63;;;;;;;28.81;28.46;99934.00;5069742;28;21157;-67
2023/10/13 09:43:07;;;;;;;8.87;4.70;;;;;;;28.77;28.82;99927.53;5064936;28;20192;-67
2023/10/13 09:45:36;;;;;;;8.57;4.93;;;;;;;28.84;28.67;99927.94;5067093;28;20243;-67
2023/10/13 09:48:06;;;;;;;17.07;5.40;;;;;;;28.80;29.05;99921.44;5067447;28;20278;-67
2023/10/13 09:50:37;;;;;;;8.90;4.63;;;;;;;28.76;28.89;99920.44;5067443;28;20665;-66
2023/10/13 09:53:08;;;;;;;7.30;4.27;;;;;;;28.45;28.84;99920.22;5067115;28;20199;-68
2023/10/13 09:55:39;;;;;;;15.33;5.37;;;;;;;28.38;29.32;99919.00;5066154;28;20203;-67
2023/10/13 09:58:13;;;;;;;6.77;5.80;;;;;;;28.40;29.32;99916.75;5067638;28;20196;-67
2023/10/13 10:00:48;;;;;;;16.57;5.67;;;;;;;28.28;29.50;99902.75;5066807;28;20202;-66
2023/10/13 10:03:40;;;;;;;9.67;5.57;;;;;;;28.46;29.74;99910.91;5067305;28;20621;-66
2023/10/13 10:06:14;;;;;;;10.37;6.10;;;;;;;28.58;29.49;99902.22;5066572;28;20243;-67
2023/10/13 10:08:50;;;;;;;10.17;4.60;;;;;;;28.48;29.21;99914.16;5067032;28;20215;-66
2023/10/13 10:11:54;;;;;;;10.83;4.63;;;;;;;28.45;29.16;99897.53;5066600;28;20226;-66
2023/10/13 10:14:30;;;;;;;5.30;4.50;;;;;;;28.71;28.98;99904.16;5066952;28;20253;-66
2023/10/13 10:17:07;;;;;;;10.27;5.10;;;;;;;28.79;28.73;99906.16;5061639;28;20199;-66
2023/10/13 10:19:36;;;;;;;11.13;5.47;;;;;;;28.77;28.83;99889.25;5053088;28;20215;-66
2023/10/13 10:22:10;;;;;;;7.97;4.80;;;;;;;28.87;29.53;99883.56;5053986;28;20188;-66
2023/10/13 10:24:38;;;;;;;7.97;5.30;;;;;;;28.80;28.85;99874.97;5052660;28;20249;-67
2023/10/13 10:27:05;;;;;;;11.90;6.27;;;;;;;28.87;28.35;99873.41;5053378;28;20220;-67
2023/10/13 10:29:32;;;;;;;7.17;5.80;;;;;;;28.93;28.42;99877.69;5053448;28;20232;-66
2023/10/13 10:32:06;;;;;;;6.73;4.07;;;;;;;28.99;28.25;99865.53;5046876;28;20699;-68
2023/10/13 10:34:35;;;;;;;10.87;4.33;;;;;;;29.00;28.40;99860.88;5041186;28;20201;-65
2023/10/13 10:37:08;;;;;;;10.20;5.13;;;;;;;28.95;28.13;99842.59;5031928;28;20581;-66
2023/10/13 10:39:44;;;;;;;8.57;4.40;;;;;;;28.90;28.82;99850.09;5033811;28;20192;-67
2023/10/13 10:42:17;;;;;;;11.53;4.97;;;;;;;28.85;28.48;99848.31;5052936;28;20243;-66
2023/10/13 10:44:44;;;;;;;8.30;4.80;;;;;;;28.73;28.74;99849.94;5052051;28;20296;-65
2023/10/13 10:47:11;;;;;;;5.90;4.50;;;;;;;28.85;28.78;99839.28;5053126;28;20224;-67
2023/10/13 10:49:40;;;;;;;9.53;4.40;;;;;;;28.97;28.68;99845.03;5053066;28;20200;-65
2023/10/13 10:52:18;;;;;;;6.37;4.67;;;;;;;29.14;28.91;99842.47;5052916;28;20259;-66
2023/10/13 10:54:51;;;;;;;12.83;4.90;;;;;;;29.23;28.04;99840.63;5052845;28;20242;-67
2023/10/13 10:57:19;;;;;;;5.47;4.97;;;;;;;29.29;28.26;99836.66;5052809;28;20189;-67
2023/10/13 10:59:46;;;;;;;14.90;5.53;;;;;;;29.37;28.33;99833.19;5052119;28;20203;-68
2023/10/13 11:02:18;;;;;;;8.63;5.03;;;;;;;29.46;28.02;99831.31;5052972;28;20725;-67
2023/10/13 11:04:51;;;;;;;11.40;4.90;;;;;;;29.55;27.91;99821.22;5052329;28;20193;-68
2023/10/13 11:07:23;;;;;;;20.87;5.07;;;;;;;29.60;27.10;99821.13;5052471;28;20208;-68
2023/10/13 11:09:52;;;;;;;13.63;5.00;;;;;;;29.42;27.91;99813.88;5052628;28;20559;-67
2023/10/13 11:12:26;;;;;;;13.47;5.27;;;;;;;29.51;27.75;99811.22;5052062;28;20201;-70
2023/10/13 11:15:04;;;;;;;8.77;5.03;;;;;;;29.62;27.38;99813.41;5052829;28;20336;-67
2023/10/13 11:20:18;;;;;;;18.23;5.60;;;;;;;29.84;27.92;99810.63;5051757;28;20284;-67
2023/10/13 11:22:48;;;;;;;9.83;5.00;;;;;;;29.67;27.80;99810.53;5052621;28;20184;-66
2023/10/13 11:25:29;;;;;;;8.87;4.60;;;;;;;29.67;28.07;99798.78;5049958;28;20201;-68
2023/10/13 11:27:59;;;;;;;9.87;5.60;;;;;;;29.69;28.90;99786.41;5050048;28;20216;-68
2023/10/13 11:30:40;;;;;;;8.43;5.23;;;;;;;29.74;27.46;99805.44;5049346;28;20205;-68
2023/10/13 11:33:09;;;;;;;16.83;5.23;;;;;;;29.87;27.81;99796.31;5050192;28;20192;-68
2023/10/13 11:35:55;;;;;;;10.40;4.73;;;;;;;29.80;27.90;99786.94;5049705;28;20636;-67
2023/10/13 11:38:26;;;;;;;16.20;5.07;;;;;;;29.67;27.80;99785.88;5042422;28;20683;-68
2023/10/13 11:41:08;;;;;;;13.60;4.77;;;;;;;29.53;27.57;99793.34;5054333;28;20201;-67
2023/10/13 11:43:52;;;;;;;18.57;5.43;;;;;;;29.50;28.01;99783.00;5050484;28;20193;-67
2023/10/13 11:46:55;;;;;;;14.57;5.47;;;;;;;29.46;28.26;99786.69;5049680;28;20262;-68
2023/10/13 11:49:17;;;;;;;25.10;6.13;;;;;;;29.32;29.02;99783.22;5044892;28;20232;-66
2023/10/13 11:51:45;;;;;;;10.57;4.80;;;;;;;29.24;28.62;99790.25;5050367;28;20272;-67
2023/10/13 11:54:11;;;;;;;10.23;4.70;;;;;;;29.25;28.40;99772.72;5047835;28;20193;-67
2023/10/13 11:56:38;;;;;;;7.33;4.60;;;;;;;29.40;28.06;99782.47;5049064;28;20254;-68
2023/10/13 11:59:15;;;;;;;7.80;4.80;;;;;;;29.48;28.03;99782.50;5048634;28;20231;-70
2023/10/13 12:04:40;;;;;;;23.33;5.10;;;;;;;29.77;28.05;99782.88;5048466;28;20197;-68
2023/10/13 12:07:17;;;;;;;9.03;5.13;;;;;;;29.87;27.02;99779.88;5049361;28;20582;-68
2023/10/13 12:10:02;;;;;;;6.30;4.33;;;;;;;29.82;26.58;99766.31;5048848;28;20223;-68
2023/10/13 12:12:31;;;;;;;7.23;4.57;;;;;;;30.00;27.30;99773.47;5044846;28;20229;-68
2023/10/13 12:15:09;;;;;;;7.43;4.97;;;;;;;30.12;26.48;99787.38;5049245;28;20219;-67
2023/10/13 12:17:36;;;;;;;8.00;4.23;;;;;;;30.25;26.46;99781.00;5049034;28;20283;-67
2023/10/13 12:20:05;;;;;;;9.93;5.47;;;;;;;30.36;26.76;99778.78;5048015;28;20192;-69
2023/10/13 12:22:38;;;;;;;7.70;4.20;;;;;;;30.38;26.70;99760.88;5058206;28;20246;-67
2023/10/13 12:25:18;;;;;;;8.40;5.17;;;;;;;30.51;26.58;99779.16;5063680;28;20188;-69
2023/10/13 12:27:48;;;;;;;12.47;4.87;;;;;;;30.45;25.38;99782.38;5050718;28;20688;-67
2023/10/13 12:30:22;;;;;;;12.03;4.60;;;;;;;30.35;26.31;99780.72;5050477;28;20197;-67
2023/10/13 12:32:58;;;;;;;5.20;4.70;;;;;;;30.30;26.26;99777.31;5050947;28;20275;-68
2023/10/13 12:35:30;;;;;;;10.13;4.70;;;;;;;30.31;26.49;99787.16;5050761;28;20184;-68
2023/10/13 12:38:04;;;;;;;11.27;5.30;;;;;;;30.26;26.05;99779.91;5048562;28;20275;-67
2023/10/13 12:49:03;;;;;;;7.47;3.97;;;;;;;30.06;24.69;99772.22;5048658;28;20195;-68
2023/10/13 12:51:50;;;;;;;8.60;4.13;;;;;;;29.91;24.93;99761.69;5048428;28;20617;-70
2023/10/13 12:54:20;;;;;;;5.40;4.30;;;;;;;29.75;25.60;99768.69;5043589;28;20196;-69
2023/10/13 12:56:46;;;;;;;6.33;4.47;;;;;;;29.56;26.89;99767.28;5053807;28;20230;-68
2023/10/13 12:59:14;;;;;;;14.27;4.17;;;;;;;29.50;26.81;99758.38;5045374;28;20617;-68
2023/10/13 13:01:43;;;;;;;11.87;4.87;;;;;;;29.38;26.68;99766.34;5048053;28;20197;-67
2023/10/13 13:04:12;;;;;;;11.77;4.27;;;;;;;29.33;26.42;99761.00;5047870;28;20205;-69
2023/10/13 13:06:40;;;;;;;9.73;4.70;;;;;;;29.31;26.23;99763.25;5055050;28;20607;-68
2023/10/13 13:09:09;;;;;;;9.77;3.87;;;;;;;29.31;26.43;99763.25;5052500;28;20588;-68
2023/10/13 13:11:39;;;;;;;9.53;4.10;;;;;;;29.31;25.79;99755.03;5047871;28;20204;-66
2023/10/13 13:14:07;;;;;;;6.13;3.97;;;;;;;29.24;25.42;99746.47;5048120;28;20193;-68
2023/10/13 13:16:35;;;;;;;8.80;4.00;;;;;;;29.29;25.39;99763.53;5048321;28;20330;-68
2023/10/13 13:19:09;;;;;;;4.67;3.50;;;;;;;29.17;25.23;99746.09;5048452;28;20204;-66
2023/10/13 13:21:36;;;;;;;6.10;4.67;;;;;;;29.26;25.52;99757.91;5047032;28;20870;-67
2023/10/13 13:24:05;;;;;;;6.07;3.57;;;;;;;29.29;26.11;99758.06;5047672;28;20246;-67
2023/10/13 13:26:32;;;;;;;7.00;4.20;;;;;;;29.33;25.26;99763.75;5045948;28;20222;-67
2023/10/13 13:28:59;;;;;;;11.37;4.47;;;;;;;29.29;25.42;99751.81;5048150;28;20668;-66
2023/10/13 13:31:29;;;;;;;11.83;4.33;;;;;;;29.28;25.65;99752.94;5048079;28;20258;-65
2023/10/13 13:33:56;;;;;;;8.13;3.90;;;;;;;29.20;25.02;99757.22;5047281;28;20198;-66
2023/10/13 13:36:24;;;;;;;13.43;4.63;;;;;;;29.18;25.25;99755.91;5047457;28;20710;-66
2023/10/13 13:38:51;;;;;;;15.97;4.23;;;;;;;29.09;25.65;99753.13;5047286;28;20683;-67
2023/10/13 13:41:18;;;;;;;5.10;3.60;;;;;;;29.14;24.60;99752.19;5047841;28;20197;-65
2023/10/13 13:43:54;;;;;;;11.60;4.17;;;;;;;29.14;25.08;99747.53;5047672;28;22846;-66
2023/10/13 13:46:24;;;;;;;9.70;4.00;;;;;;;29.16;26.84;99744.47;5047628;28;20214;-66
2023/10/13 13:48:57;;;;;;;23.23;4.97;;;;;;;29.07;28.10;99732.63;5048121;28;20261;-66
2023/10/13 13:51:27;;;;;;;17.63;4.13;;;;;;;29.13;27.33;99745.09;5047600;28;20275;-66
2023/10/13 13:53:55;;;;;;;8.43;3.87;;;;;;;29.08;26.57;99746.00;5044915;28;20644;-71